Aeolos — V7PS2 — position and weather

sailwx.info

Track history (hours):
 
Tides and Currents Weather Stations Pressure Air Temp Water Temp Dewpoint Dewpoint Depression Visibility Wind Speed Wind Dir Waves Ship Positions

Aeolos

Last reported at 2017-Nov-24 06:50 UTC. Time now 2017-Nov-24 11:41 UTC.
Position N 59°48' E 019°38'.

Length 172 m; draft 10.3 m.

Type: Cargo ship. MMSI: 538003275.

Date/timePositionNaut miles runAvg speedWind from/ knotsBaromVisibWave heightAir tempDewpointWater temp
2017-Nov-24 06:50N 59°48' E 019°38'411.7
2017-Nov-24 06:30N 59°51' E 019°33'611.6
2017-Nov-24 06:01N 59°55' E 019°26'611.7
2017-Nov-24 05:31N 59°60' E 019°19'611.7
2017-Nov-24 05:00N 60°04' E 019°11'611.7
2017-Nov-24 04:30N 60°09' E 019°04'611.2
2017-Nov-24 04:00N 60°14' E 019°01'611.8
2017-Nov-24 03:30N 60°20' E 018°60'811.8
2017-Nov-24 02:50N 60°28' E 018°58'  
Track history (hours):
 
Tides and Currents Weather Stations Pressure Air Temp Water Temp Dewpoint Dewpoint Depression Visibility Wind Speed Wind Dir Waves Ship Positions

Aeolos

Last reported at 2017-Nov-24 06:50 UTC. Time now 2017-Nov-24 11:41 UTC.
Position N 59°48' E 019°38'.

Length 172 m; draft 10.3 m.

Type: Cargo ship. MMSI: 538003275.

Date/timePositionNaut miles runAvg speedWind from/ knotsBaromVisibWave heightAir tempDewpointWater temp
2017-Nov-24 06:50N 59°48' E 019°38'411.7
2017-Nov-24 06:30N 59°51' E 019°33'611.6
2017-Nov-24 06:01N 59°55' E 019°26'611.7
2017-Nov-24 05:31N 59°60' E 019°19'611.7
2017-Nov-24 05:00N 60°04' E 019°11'611.7
2017-Nov-24 04:30N 60°09' E 019°04'611.2
2017-Nov-24 04:00N 60°14' E 019°01'611.8
2017-Nov-24 03:30N 60°20' E 018°60'811.8
2017-Nov-24 02:50N 60°28' E 018°58'  

Dump ship's entire track history